sensor_id;sensor_type;location;lat;lon;timestamp;P1;durP1;ratioP1;P2;durP2;ratioP2
36597;SDS011;22607;49.550;11.940;2022-08-19T00:02:00;14.45;;;10.63;;
36597;SDS011;22607;49.550;11.940;2022-08-19T00:04:29;14.18;;;10.57;;
36597;SDS011;22607;49.550;11.940;2022-08-19T00:07:03;15.45;;;11.55;;
36597;SDS011;22607;49.550;11.940;2022-08-19T00:09:31;16.38;;;12.85;;
36597;SDS011;22607;49.550;11.940;2022-08-19T00:11:58;14.40;;;11.27;;
36597;SDS011;22607;49.550;11.940;2022-08-19T00:14:26;13.20;;;9.57;;
36597;SDS011;22607;49.550;11.940;2022-08-19T00:16:53;14.32;;;10.15;;
36597;SDS011;22607;49.550;11.940;2022-08-19T00:19:21;14.55;;;11.65;;
36597;SDS011;22607;49.550;11.940;2022-08-19T00:21:49;13.90;;;10.32;;
36597;SDS011;22607;49.550;11.940;2022-08-19T00:24:18;14.38;;;11.00;;
36597;SDS011;22607;49.550;11.940;2022-08-19T00:26:45;13.73;;;10.20;;
36597;SDS011;22607;49.550;11.940;2022-08-19T00:29:13;12.50;;;8.82;;
36597;SDS011;22607;49.550;11.940;2022-08-19T00:31:44;16.52;;;11.82;;
36597;SDS011;22607;49.550;11.940;2022-08-19T00:34:12;13.90;;;10.05;;
36597;SDS011;22607;49.550;11.940;2022-08-19T00:36:40;14.52;;;11.07;;
36597;SDS011;22607;49.550;11.940;2022-08-19T00:39:08;15.20;;;12.30;;
36597;SDS011;22607;49.550;11.940;2022-08-19T00:41:35;15.05;;;11.98;;
36597;SDS011;22607;49.550;11.940;2022-08-19T00:44:08;14.10;;;9.27;;
36597;SDS011;22607;49.550;11.940;2022-08-19T00:46:40;13.90;;;9.88;;
36597;SDS011;22607;49.550;11.940;2022-08-19T00:49:15;15.23;;;11.52;;
36597;SDS011;22607;49.550;11.940;2022-08-19T00:51:46;15.60;;;11.30;;
36597;SDS011;22607;49.550;11.940;2022-08-19T00:54:16;16.77;;;11.00;;
36597;SDS011;22607;49.550;11.940;2022-08-19T00:56:53;13.65;;;8.90;;
36597;SDS011;22607;49.550;11.940;2022-08-19T00:59:21;18.10;;;14.88;;
36597;SDS011;22607;49.550;11.940;2022-08-19T01:02:08;15.40;;;11.65;;
36597;SDS011;22607;49.550;11.940;2022-08-19T01:04:35;14.48;;;11.15;;
36597;SDS011;22607;49.550;11.940;2022-08-19T01:07:02;16.15;;;11.90;;
36597;SDS011;22607;49.550;11.940;2022-08-19T01:09:29;13.45;;;10.45;;
36597;SDS011;22607;49.550;11.940;2022-08-19T01:11:57;15.02;;;11.40;;
36597;SDS011;22607;49.550;11.940;2022-08-19T01:14:23;13.38;;;10.20;;
36597;SDS011;22607;49.550;11.940;2022-08-19T01:16:51;15.10;;;10.88;;
36597;SDS011;22607;49.550;11.940;2022-08-19T01:19:24;14.00;;;9.73;;
36597;SDS011;22607;49.550;11.940;2022-08-19T01:21:58;15.85;;;12.52;;
36597;SDS011;22607;49.550;11.940;2022-08-19T01:24:39;14.63;;;10.50;;
36597;SDS011;22607;49.550;11.940;2022-08-19T01:27:15;14.05;;;10.23;;
36597;SDS011;22607;49.550;11.940;2022-08-19T01:29:42;14.52;;;10.43;;
36597;SDS011;22607;49.550;11.940;2022-08-19T01:32:12;13.82;;;10.30;;
36597;SDS011;22607;49.550;11.940;2022-08-19T01:34:58;15.70;;;11.20;;
36597;SDS011;22607;49.550;11.940;2022-08-19T01:37:28;14.73;;;11.35;;
36597;SDS011;22607;49.550;11.940;2022-08-19T01:39:56;16.38;;;11.57;;
36597;SDS011;22607;49.550;11.940;2022-08-19T01:42:23;16.48;;;11.95;;
36597;SDS011;22607;49.550;11.940;2022-08-19T01:44:56;15.68;;;11.18;;
36597;SDS011;22607;49.550;11.940;2022-08-19T01:47:23;17.95;;;15.25;;
36597;SDS011;22607;49.550;11.940;2022-08-19T01:49:50;15.88;;;13.50;;
36597;SDS011;22607;49.550;11.940;2022-08-19T01:52:17;15.75;;;12.10;;
36597;SDS011;22607;49.550;11.940;2022-08-19T01:54:44;16.17;;;12.63;;
36597;SDS011;22607;49.550;11.940;2022-08-19T01:57:12;19.23;;;14.05;;
36597;SDS011;22607;49.550;11.940;2022-08-19T01:59:41;21.80;;;14.38;;
36597;SDS011;22607;49.550;11.940;2022-08-19T02:02:10;16.23;;;12.60;;
36597;SDS011;22607;49.550;11.940;2022-08-19T02:04:37;16.92;;;12.25;;
36597;SDS011;22607;49.550;11.940;2022-08-19T02:07:05;16.75;;;13.25;;
36597;SDS011;22607;49.550;11.940;2022-08-19T02:09:34;16.67;;;13.60;;
36597;SDS011;22607;49.550;11.940;2022-08-19T02:12:01;16.98;;;11.70;;
36597;SDS011;22607;49.550;11.940;2022-08-19T02:14:28;16.60;;;11.50;;
36597;SDS011;22607;49.550;11.940;2022-08-19T02:16:55;16.63;;;12.00;;
36597;SDS011;22607;49.550;11.940;2022-08-19T02:19:22;16.08;;;12.75;;
36597;SDS011;22607;49.550;11.940;2022-08-19T02:21:49;13.45;;;10.50;;
36597;SDS011;22607;49.550;11.940;2022-08-19T02:24:15;14.55;;;11.30;;
36597;SDS011;22607;49.550;11.940;2022-08-19T02:26:42;14.32;;;10.02;;
36597;SDS011;22607;49.550;11.940;2022-08-19T02:29:09;15.57;;;11.43;;
36597;SDS011;22607;49.550;11.940;2022-08-19T02:31:35;16.10;;;12.95;;
36597;SDS011;22607;49.550;11.940;2022-08-19T02:34:02;16.75;;;13.45;;
36597;SDS011;22607;49.550;11.940;2022-08-19T02:36:29;16.77;;;11.13;;
36597;SDS011;22607;49.550;11.940;2022-08-19T02:38:56;18.95;;;14.65;;
36597;SDS011;22607;49.550;11.940;2022-08-19T02:41:25;17.00;;;13.45;;
36597;SDS011;22607;49.550;11.940;2022-08-19T02:43:57;15.23;;;11.70;;
36597;SDS011;22607;49.550;11.940;2022-08-19T02:46:46;14.93;;;11.00;;
36597;SDS011;22607;49.550;11.940;2022-08-19T02:49:14;14.75;;;11.73;;
36597;SDS011;22607;49.550;11.940;2022-08-19T02:51:44;16.95;;;13.07;;
36597;SDS011;22607;49.550;11.940;2022-08-19T02:54:12;16.35;;;12.02;;
36597;SDS011;22607;49.550;11.940;2022-08-19T02:56:40;15.93;;;11.57;;
36597;SDS011;22607;49.550;11.940;2022-08-19T02:59:09;15.43;;;11.25;;
36597;SDS011;22607;49.550;11.940;2022-08-19T03:01:37;14.90;;;11.52;;
36597;SDS011;22607;49.550;11.940;2022-08-19T03:04:07;15.27;;;11.90;;
36597;SDS011;22607;49.550;11.940;2022-08-19T03:06:36;14.25;;;9.88;;
36597;SDS011;22607;49.550;11.940;2022-08-19T03:09:04;19.75;;;13.52;;
36597;SDS011;22607;49.550;11.940;2022-08-19T03:11:31;18.40;;;14.18;;
36597;SDS011;22607;49.550;11.940;2022-08-19T03:13:59;19.02;;;13.48;;
36597;SDS011;22607;49.550;11.940;2022-08-19T03:16:29;16.23;;;11.80;;
36597;SDS011;22607;49.550;11.940;2022-08-19T03:18:59;17.08;;;12.40;;
36597;SDS011;22607;49.550;11.940;2022-08-19T03:21:29;15.73;;;12.07;;
36597;SDS011;22607;49.550;11.940;2022-08-19T03:23:57;18.20;;;13.13;;
36597;SDS011;22607;49.550;11.940;2022-08-19T03:26:26;16.08;;;12.80;;
36597;SDS011;22607;49.550;11.940;2022-08-19T03:28:54;14.88;;;11.77;;
36597;SDS011;22607;49.550;11.940;2022-08-19T03:31:25;14.70;;;11.25;;
36597;SDS011;22607;49.550;11.940;2022-08-19T03:34:14;15.45;;;13.10;;
36597;SDS011;22607;49.550;11.940;2022-08-19T03:36:47;16.90;;;13.63;;
36597;SDS011;22607;49.550;11.940;2022-08-19T03:39:14;14.32;;;10.20;;
36597;SDS011;22607;49.550;11.940;2022-08-19T03:41:42;16.83;;;11.15;;
36597;SDS011;22607;49.550;11.940;2022-08-19T03:44:14;16.23;;;10.60;;
36597;SDS011;22607;49.550;11.940;2022-08-19T03:46:45;15.10;;;11.25;;
36597;SDS011;22607;49.550;11.940;2022-08-19T03:49:18;16.20;;;10.70;;
36597;SDS011;22607;49.550;11.940;2022-08-19T03:51:46;17.45;;;12.00;;
36597;SDS011;22607;49.550;11.940;2022-08-19T03:54:16;13.80;;;10.45;;
36597;SDS011;22607;49.550;11.940;2022-08-19T03:56:49;13.60;;;9.90;;
36597;SDS011;22607;49.550;11.940;2022-08-19T03:59:20;14.45;;;10.20;;
36597;SDS011;22607;49.550;11.940;2022-08-19T04:01:54;13.35;;;9.07;;
36597;SDS011;22607;49.550;11.940;2022-08-19T04:04:23;14.23;;;10.02;;
36597;SDS011;22607;49.550;11.940;2022-08-19T04:06:54;14.15;;;10.57;;
36597;SDS011;22607;49.550;11.940;2022-08-19T04:09:21;13.70;;;9.82;;
36597;SDS011;22607;49.550;11.940;2022-08-19T04:11:49;13.82;;;10.32;;
36597;SDS011;22607;49.550;11.940;2022-08-19T04:14:21;14.70;;;10.73;;
36597;SDS011;22607;49.550;11.940;2022-08-19T04:16:51;13.52;;;10.43;;
36597;SDS011;22607;49.550;11.940;2022-08-19T04:19:19;15.50;;;11.68;;
36597;SDS011;22607;49.550;11.940;2022-08-19T04:21:47;14.07;;;9.80;;
36597;SDS011;22607;49.550;11.940;2022-08-19T04:24:16;15.60;;;11.10;;
36597;SDS011;22607;49.550;11.940;2022-08-19T04:26:44;15.10;;;11.35;;
36597;SDS011;22607;49.550;11.940;2022-08-19T04:29:30;17.42;;;12.13;;
36597;SDS011;22607;49.550;11.940;2022-08-19T04:31:57;16.52;;;12.65;;
36597;SDS011;22607;49.550;11.940;2022-08-19T04:34:25;17.27;;;11.40;;
36597;SDS011;22607;49.550;11.940;2022-08-19T04:36:55;14.50;;;11.13;;
36597;SDS011;22607;49.550;11.940;2022-08-19T04:39:24;13.85;;;10.13;;
36597;SDS011;22607;49.550;11.940;2022-08-19T04:42:15;13.45;;;10.00;;
36597;SDS011;22607;49.550;11.940;2022-08-19T04:45:02;14.20;;;9.40;;
36597;SDS011;22607;49.550;11.940;2022-08-19T04:47:30;14.70;;;10.85;;
36597;SDS011;22607;49.550;11.940;2022-08-19T04:50:18;15.80;;;10.95;;
36597;SDS011;22607;49.550;11.940;2022-08-19T04:52:45;14.45;;;10.13;;
36597;SDS011;22607;49.550;11.940;2022-08-19T04:55:12;16.17;;;12.65;;
36597;SDS011;22607;49.550;11.940;2022-08-19T04:57:39;18.00;;;12.45;;
36597;SDS011;22607;49.550;11.940;2022-08-19T05:00:07;15.98;;;10.95;;
36597;SDS011;22607;49.550;11.940;2022-08-19T05:02:35;15.30;;;11.27;;
36597;SDS011;22607;49.550;11.940;2022-08-19T05:05:02;14.95;;;11.30;;
36597;SDS011;22607;49.550;11.940;2022-08-19T05:07:29;15.75;;;12.75;;
36597;SDS011;22607;49.550;11.940;2022-08-19T05:09:57;16.33;;;12.35;;
36597;SDS011;22607;49.550;11.940;2022-08-19T05:12:24;14.55;;;9.98;;
36597;SDS011;22607;49.550;11.940;2022-08-19T05:14:54;15.38;;;11.38;;
36597;SDS011;22607;49.550;11.940;2022-08-19T05:17:24;15.15;;;11.02;;
36597;SDS011;22607;49.550;11.940;2022-08-19T05:19:55;15.10;;;11.35;;
36597;SDS011;22607;49.550;11.940;2022-08-19T05:22:41;14.35;;;10.90;;
36597;SDS011;22607;49.550;11.940;2022-08-19T05:25:12;14.65;;;10.68;;
36597;SDS011;22607;49.550;11.940;2022-08-19T05:27:40;16.35;;;12.40;;
36597;SDS011;22607;49.550;11.940;2022-08-19T05:30:08;16.10;;;12.15;;
36597;SDS011;22607;49.550;11.940;2022-08-19T05:32:35;14.40;;;11.35;;
36597;SDS011;22607;49.550;11.940;2022-08-19T05:35:03;16.85;;;13.23;;
36597;SDS011;22607;49.550;11.940;2022-08-19T05:37:31;18.35;;;13.40;;
36597;SDS011;22607;49.550;11.940;2022-08-19T05:39:57;18.20;;;14.05;;
36597;SDS011;22607;49.550;11.940;2022-08-19T05:42:24;19.70;;;14.25;;
36597;SDS011;22607;49.550;11.940;2022-08-19T05:44:52;16.23;;;12.07;;
36597;SDS011;22607;49.550;11.940;2022-08-19T05:47:19;15.30;;;11.15;;
36597;SDS011;22607;49.550;11.940;2022-08-19T05:49:46;15.10;;;11.32;;
36597;SDS011;22607;49.550;11.940;2022-08-19T05:52:18;17.65;;;15.15;;
36597;SDS011;22607;49.550;11.940;2022-08-19T05:54:52;15.75;;;12.77;;
36597;SDS011;22607;49.550;11.940;2022-08-19T05:57:21;15.18;;;11.13;;
36597;SDS011;22607;49.550;11.940;2022-08-19T05:59:49;15.40;;;12.00;;
36597;SDS011;22607;49.550;11.940;2022-08-19T06:02:24;14.40;;;11.10;;
36597;SDS011;22607;49.550;11.940;2022-08-19T06:04:52;15.82;;;11.30;;
36597;SDS011;22607;49.550;11.940;2022-08-19T06:07:19;14.75;;;11.52;;
36597;SDS011;22607;49.550;11.940;2022-08-19T06:09:46;14.20;;;10.63;;
36597;SDS011;22607;49.550;11.940;2022-08-19T06:12:25;13.75;;;10.30;;
36597;SDS011;22607;49.550;11.940;2022-08-19T06:14:56;13.43;;;10.48;;
36597;SDS011;22607;49.550;11.940;2022-08-19T06:17:27;13.75;;;9.82;;
36597;SDS011;22607;49.550;11.940;2022-08-19T06:19:57;14.77;;;9.80;;
36597;SDS011;22607;49.550;11.940;2022-08-19T06:22:25;13.27;;;9.95;;
36597;SDS011;22607;49.550;11.940;2022-08-19T06:24:52;13.27;;;9.90;;
36597;SDS011;22607;49.550;11.940;2022-08-19T06:27:20;14.43;;;9.75;;
36597;SDS011;22607;49.550;11.940;2022-08-19T06:29:47;13.18;;;9.95;;
36597;SDS011;22607;49.550;11.940;2022-08-19T06:32:15;14.35;;;9.85;;
36597;SDS011;22607;49.550;11.940;2022-08-19T06:34:42;13.75;;;9.80;;
36597;SDS011;22607;49.550;11.940;2022-08-19T06:37:10;13.05;;;8.80;;
36597;SDS011;22607;49.550;11.940;2022-08-19T06:39:38;11.65;;;7.97;;
36597;SDS011;22607;49.550;11.940;2022-08-19T06:42:07;14.35;;;9.63;;
36597;SDS011;22607;49.550;11.940;2022-08-19T06:44:39;12.38;;;8.00;;
36597;SDS011;22607;49.550;11.940;2022-08-19T06:47:09;12.25;;;8.85;;
36597;SDS011;22607;49.550;11.940;2022-08-19T06:49:48;10.65;;;6.80;;
36597;SDS011;22607;49.550;11.940;2022-08-19T06:52:15;10.82;;;7.93;;
36597;SDS011;22607;49.550;11.940;2022-08-19T06:54:42;10.13;;;6.60;;
36597;SDS011;22607;49.550;11.940;2022-08-19T06:57:22;10.00;;;6.32;;
36597;SDS011;22607;49.550;11.940;2022-08-19T06:59:52;10.38;;;6.80;;
36597;SDS011;22607;49.550;11.940;2022-08-19T07:02:19;9.68;;;6.03;;
36597;SDS011;22607;49.550;11.940;2022-08-19T07:04:47;10.25;;;6.15;;
36597;SDS011;22607;49.550;11.940;2022-08-19T07:07:20;8.85;;;4.95;;
36597;SDS011;22607;49.550;11.940;2022-08-19T07:09:47;9.38;;;5.57;;
36597;SDS011;22607;49.550;11.940;2022-08-19T07:12:25;9.77;;;6.07;;
36597;SDS011;22607;49.550;11.940;2022-08-19T07:14:56;9.95;;;5.95;;
36597;SDS011;22607;49.550;11.940;2022-08-19T07:17:24;10.40;;;6.45;;
36597;SDS011;22607;49.550;11.940;2022-08-19T07:19:51;9.35;;;5.57;;
36597;SDS011;22607;49.550;11.940;2022-08-19T07:22:20;10.32;;;5.95;;
36597;SDS011;22607;49.550;11.940;2022-08-19T07:24:49;10.57;;;6.65;;
36597;SDS011;22607;49.550;11.940;2022-08-19T07:27:17;8.68;;;5.10;;
36597;SDS011;22607;49.550;11.940;2022-08-19T07:29:52;10.48;;;6.13;;
36597;SDS011;22607;49.550;11.940;2022-08-19T07:32:22;9.40;;;5.38;;
36597;SDS011;22607;49.550;11.940;2022-08-19T07:34:52;13.25;;;7.55;;
36597;SDS011;22607;49.550;11.940;2022-08-19T07:37:21;11.73;;;7.20;;
36597;SDS011;22607;49.550;11.940;2022-08-19T07:39:48;12.15;;;7.43;;
36597;SDS011;22607;49.550;11.940;2022-08-19T07:42:15;10.95;;;7.40;;
36597;SDS011;22607;49.550;11.940;2022-08-19T07:44:47;13.50;;;9.32;;
36597;SDS011;22607;49.550;11.940;2022-08-19T07:47:16;14.68;;;9.27;;
36597;SDS011;22607;49.550;11.940;2022-08-19T07:50:05;11.90;;;8.00;;
36597;SDS011;22607;49.550;11.940;2022-08-19T07:52:34;15.13;;;10.73;;
36597;SDS011;22607;49.550;11.940;2022-08-19T07:55:05;13.90;;;9.00;;
36597;SDS011;22607;49.550;11.940;2022-08-19T07:57:54;15.18;;;10.93;;
36597;SDS011;22607;49.550;11.940;2022-08-19T08:00:21;13.43;;;9.40;;
36597;SDS011;22607;49.550;11.940;2022-08-19T08:02:49;13.13;;;9.15;;
36597;SDS011;22607;49.550;11.940;2022-08-19T08:05:16;14.65;;;10.18;;
36597;SDS011;22607;49.550;11.940;2022-08-19T08:08:08;12.98;;;9.70;;
36597;SDS011;22607;49.550;11.940;2022-08-19T08:10:54;12.25;;;8.93;;
36597;SDS011;22607;49.550;11.940;2022-08-19T08:13:23;12.65;;;9.25;;
36597;SDS011;22607;49.550;11.940;2022-08-19T08:15:51;12.88;;;9.85;;
36597;SDS011;22607;49.550;11.940;2022-08-19T08:18:21;17.85;;;11.43;;
36597;SDS011;22607;49.550;11.940;2022-08-19T08:20:53;13.88;;;9.88;;
36597;SDS011;22607;49.550;11.940;2022-08-19T08:23:20;13.35;;;10.57;;
36597;SDS011;22607;49.550;11.940;2022-08-19T08:25:56;13.77;;;9.60;;
36597;SDS011;22607;49.550;11.940;2022-08-19T08:28:24;12.35;;;9.70;;
36597;SDS011;22607;49.550;11.940;2022-08-19T08:30:55;13.60;;;9.55;;
36597;SDS011;22607;49.550;11.940;2022-08-19T08:33:24;14.80;;;10.30;;
36597;SDS011;22607;49.550;11.940;2022-08-19T08:35:59;14.18;;;10.63;;
36597;SDS011;22607;49.550;11.940;2022-08-19T08:38:29;14.10;;;10.80;;
36597;SDS011;22607;49.550;11.940;2022-08-19T08:44:00;13.60;;;8.80;;
36597;SDS011;22607;49.550;11.940;2022-08-19T08:46:41;14.60;;;9.85;;
36597;SDS011;22607;49.550;11.940;2022-08-19T08:51:40;13.80;;;9.88;;
36597;SDS011;22607;49.550;11.940;2022-08-19T08:54:13;13.02;;;8.90;;
36597;SDS011;22607;49.550;11.940;2022-08-19T08:56:44;12.68;;;8.80;;
36597;SDS011;22607;49.550;11.940;2022-08-19T09:01:51;12.57;;;8.43;;
36597;SDS011;22607;49.550;11.940;2022-08-19T09:04:18;14.27;;;9.15;;
36597;SDS011;22607;49.550;11.940;2022-08-19T09:15:26;12.80;;;9.18;;
36597;SDS011;22607;49.550;11.940;2022-08-19T09:18:02;12.75;;;8.50;;
36597;SDS011;22607;49.550;11.940;2022-08-19T09:20:32;12.83;;;8.60;;
36597;SDS011;22607;49.550;11.940;2022-08-19T09:22:59;14.45;;;9.68;;
36597;SDS011;22607;49.550;11.940;2022-08-19T09:25:26;14.07;;;9.82;;
36597;SDS011;22607;49.550;11.940;2022-08-19T09:27:55;14.05;;;10.68;;
36597;SDS011;22607;49.550;11.940;2022-08-19T09:30:29;14.05;;;9.32;;
36597;SDS011;22607;49.550;11.940;2022-08-19T09:32:58;13.10;;;9.40;;
36597;SDS011;22607;49.550;11.940;2022-08-19T09:35:26;12.55;;;7.88;;
36597;SDS011;22607;49.550;11.940;2022-08-19T09:37:55;12.82;;;8.45;;
36597;SDS011;22607;49.550;11.940;2022-08-19T09:40:25;12.05;;;8.65;;
36597;SDS011;22607;49.550;11.940;2022-08-19T09:42:55;13.85;;;7.45;;
36597;SDS011;22607;49.550;11.940;2022-08-19T09:45:23;11.20;;;7.15;;
36597;SDS011;22607;49.550;11.940;2022-08-19T09:47:51;12.05;;;8.20;;
36597;SDS011;22607;49.550;11.940;2022-08-19T09:50:20;12.65;;;8.40;;
36597;SDS011;22607;49.550;11.940;2022-08-19T09:52:48;12.85;;;7.53;;
36597;SDS011;22607;49.550;11.940;2022-08-19T09:55:22;11.95;;;8.18;;
36597;SDS011;22607;49.550;11.940;2022-08-19T09:57:57;11.55;;;8.15;;
36597;SDS011;22607;49.550;11.940;2022-08-19T10:00:27;11.20;;;7.00;;
36597;SDS011;22607;49.550;11.940;2022-08-19T10:02:54;11.77;;;7.55;;
36597;SDS011;22607;49.550;11.940;2022-08-19T10:05:21;13.85;;;8.63;;
36597;SDS011;22607;49.550;11.940;2022-08-19T10:08:07;12.40;;;8.55;;
36597;SDS011;22607;49.550;11.940;2022-08-19T10:10:39;11.65;;;7.43;;
36597;SDS011;22607;49.550;11.940;2022-08-19T10:13:12;11.55;;;7.35;;
36597;SDS011;22607;49.550;11.940;2022-08-19T10:15:43;11.20;;;7.60;;
36597;SDS011;22607;49.550;11.940;2022-08-19T10:18:14;10.93;;;6.82;;
36597;SDS011;22607;49.550;11.940;2022-08-19T10:20:45;11.48;;;7.70;;
36597;SDS011;22607;49.550;11.940;2022-08-19T10:23:17;10.70;;;7.07;;
36597;SDS011;22607;49.550;11.940;2022-08-19T10:25:46;10.30;;;6.15;;
36597;SDS011;22607;49.550;11.940;2022-08-19T10:28:13;10.77;;;6.43;;
36597;SDS011;22607;49.550;11.940;2022-08-19T10:30:40;12.65;;;7.47;;
36597;SDS011;22607;49.550;11.940;2022-08-19T10:33:08;11.98;;;7.30;;
36597;SDS011;22607;49.550;11.940;2022-08-19T10:35:36;11.27;;;6.63;;
36597;SDS011;22607;49.550;11.940;2022-08-19T10:38:21;10.05;;;6.07;;
36597;SDS011;22607;49.550;11.940;2022-08-19T10:41:05;10.95;;;6.97;;
36597;SDS011;22607;49.550;11.940;2022-08-19T10:43:37;11.00;;;6.40;;
36597;SDS011;22607;49.550;11.940;2022-08-19T10:46:05;10.75;;;6.50;;
36597;SDS011;22607;49.550;11.940;2022-08-19T10:48:42;10.10;;;6.03;;
36597;SDS011;22607;49.550;11.940;2022-08-19T10:51:10;11.75;;;6.95;;
36597;SDS011;22607;49.550;11.940;2022-08-19T10:53:57;10.57;;;6.30;;
36597;SDS011;22607;49.550;11.940;2022-08-19T10:56:25;9.73;;;5.78;;
36597;SDS011;22607;49.550;11.940;2022-08-19T10:59:11;9.80;;;6.28;;
36597;SDS011;22607;49.550;11.940;2022-08-19T11:01:40;11.70;;;6.25;;
36597;SDS011;22607;49.550;11.940;2022-08-19T11:04:08;11.02;;;7.28;;
36597;SDS011;22607;49.550;11.940;2022-08-19T11:06:40;10.20;;;6.15;;
36597;SDS011;22607;49.550;11.940;2022-08-19T11:09:09;9.70;;;5.95;;
36597;SDS011;22607;49.550;11.940;2022-08-19T11:11:38;11.60;;;7.20;;
36597;SDS011;22607;49.550;11.940;2022-08-19T11:14:08;10.13;;;6.07;;
36597;SDS011;22607;49.550;11.940;2022-08-19T11:16:40;10.30;;;6.35;;
36597;SDS011;22607;49.550;11.940;2022-08-19T11:19:09;11.30;;;6.32;;
36597;SDS011;22607;49.550;11.940;2022-08-19T11:21:41;10.32;;;6.32;;
36597;SDS011;22607;49.550;11.940;2022-08-19T11:24:17;12.00;;;6.93;;
36597;SDS011;22607;49.550;11.940;2022-08-19T11:26:46;10.57;;;7.15;;
36597;SDS011;22607;49.550;11.940;2022-08-19T11:29:16;11.93;;;7.35;;
36597;SDS011;22607;49.550;11.940;2022-08-19T11:31:46;10.02;;;6.57;;
36597;SDS011;22607;49.550;11.940;2022-08-19T11:34:16;10.10;;;6.70;;
36597;SDS011;22607;49.550;11.940;2022-08-19T11:36:46;10.15;;;6.53;;
36597;SDS011;22607;49.550;11.940;2022-08-19T11:39:15;11.27;;;6.22;;
36597;SDS011;22607;49.550;11.940;2022-08-19T11:41:43;10.45;;;6.70;;
36597;SDS011;22607;49.550;11.940;2022-08-19T11:44:10;10.15;;;6.47;;
36597;SDS011;22607;49.550;11.940;2022-08-19T11:46:37;10.30;;;6.28;;
36597;SDS011;22607;49.550;11.940;2022-08-19T11:49:04;10.40;;;6.95;;
36597;SDS011;22607;49.550;11.940;2022-08-19T11:51:39;13.13;;;8.27;;
36597;SDS011;22607;49.550;11.940;2022-08-19T11:54:08;12.52;;;7.30;;
36597;SDS011;22607;49.550;11.940;2022-08-19T11:56:36;10.85;;;6.38;;
36597;SDS011;22607;49.550;11.940;2022-08-19T11:59:03;11.32;;;6.65;;
36597;SDS011;22607;49.550;11.940;2022-08-19T12:01:30;11.00;;;7.07;;
36597;SDS011;22607;49.550;11.940;2022-08-19T12:03:57;10.65;;;6.97;;
36597;SDS011;22607;49.550;11.940;2022-08-19T12:06:26;10.93;;;7.22;;
36597;SDS011;22607;49.550;11.940;2022-08-19T12:08:55;11.82;;;8.05;;
36597;SDS011;22607;49.550;11.940;2022-08-19T12:11:23;11.77;;;7.40;;
36597;SDS011;22607;49.550;11.940;2022-08-19T12:13:50;11.55;;;7.50;;
36597;SDS011;22607;49.550;11.940;2022-08-19T12:16:18;13.32;;;7.70;;
36597;SDS011;22607;49.550;11.940;2022-08-19T12:18:46;11.18;;;7.60;;
36597;SDS011;22607;49.550;11.940;2022-08-19T12:21:20;14.52;;;9.07;;
36597;SDS011;22607;49.550;11.940;2022-08-19T12:23:49;11.60;;;8.75;;
36597;SDS011;22607;49.550;11.940;2022-08-19T12:26:21;15.43;;;9.77;;
36597;SDS011;22607;49.550;11.940;2022-08-19T12:28:48;12.70;;;8.00;;
36597;SDS011;22607;49.550;11.940;2022-08-19T12:31:15;11.52;;;7.78;;
36597;SDS011;22607;49.550;11.940;2022-08-19T12:33:43;11.90;;;8.25;;
36597;SDS011;22607;49.550;11.940;2022-08-19T12:36:10;13.40;;;9.40;;
36597;SDS011;22607;49.550;11.940;2022-08-19T12:38:41;12.85;;;9.68;;
36597;SDS011;22607;49.550;11.940;2022-08-19T12:41:10;13.52;;;9.55;;
36597;SDS011;22607;49.550;11.940;2022-08-19T12:43:41;14.90;;;10.55;;
36597;SDS011;22607;49.550;11.940;2022-08-19T12:46:08;12.35;;;8.45;;
36597;SDS011;22607;49.550;11.940;2022-08-19T12:48:36;12.30;;;9.05;;
36597;SDS011;22607;49.550;11.940;2022-08-19T12:51:07;13.63;;;8.10;;
36597;SDS011;22607;49.550;11.940;2022-08-19T12:53:35;12.15;;;8.63;;
36597;SDS011;22607;49.550;11.940;2022-08-19T12:56:04;14.35;;;9.55;;
36597;SDS011;22607;49.550;11.940;2022-08-19T12:58:37;12.55;;;9.10;;
36597;SDS011;22607;49.550;11.940;2022-08-19T13:01:09;12.38;;;8.05;;
36597;SDS011;22607;49.550;11.940;2022-08-19T13:03:39;13.15;;;8.27;;
36597;SDS011;22607;49.550;11.940;2022-08-19T13:06:07;12.35;;;8.50;;
36597;SDS011;22607;49.550;11.940;2022-08-19T13:08:34;12.02;;;9.07;;
36597;SDS011;22607;49.550;11.940;2022-08-19T13:11:12;12.60;;;7.78;;
36597;SDS011;22607;49.550;11.940;2022-08-19T13:13:44;12.73;;;8.77;;
36597;SDS011;22607;49.550;11.940;2022-08-19T13:16:12;12.18;;;8.10;;
36597;SDS011;22607;49.550;11.940;2022-08-19T13:18:40;11.77;;;7.72;;
36597;SDS011;22607;49.550;11.940;2022-08-19T13:21:08;10.52;;;7.15;;
36597;SDS011;22607;49.550;11.940;2022-08-19T13:23:37;11.70;;;7.57;;
36597;SDS011;22607;49.550;11.940;2022-08-19T13:26:05;12.93;;;8.07;;
36597;SDS011;22607;49.550;11.940;2022-08-19T13:28:33;11.07;;;7.38;;
36597;SDS011;22607;49.550;11.940;2022-08-19T13:31:19;10.45;;;6.40;;
36597;SDS011;22607;49.550;11.940;2022-08-19T13:34:06;11.43;;;6.75;;
36597;SDS011;22607;49.550;11.940;2022-08-19T13:36:33;11.95;;;7.40;;
36597;SDS011;22607;49.550;11.940;2022-08-19T13:39:01;13.35;;;6.57;;
36597;SDS011;22607;49.550;11.940;2022-08-19T13:41:28;10.68;;;6.47;;
36597;SDS011;22607;49.550;11.940;2022-08-19T13:43:54;9.70;;;5.65;;
36597;SDS011;22607;49.550;11.940;2022-08-19T13:46:21;10.05;;;5.93;;
36597;SDS011;22607;49.550;11.940;2022-08-19T13:48:48;9.55;;;5.65;;
36597;SDS011;22607;49.550;11.940;2022-08-19T13:51:15;10.07;;;5.93;;
36597;SDS011;22607;49.550;11.940;2022-08-19T13:53:43;11.52;;;6.10;;
36597;SDS011;22607;49.550;11.940;2022-08-19T13:56:14;10.18;;;6.10;;
36597;SDS011;22607;49.550;11.940;2022-08-19T13:58:42;11.80;;;7.28;;
36597;SDS011;22607;49.550;11.940;2022-08-19T14:01:09;10.10;;;5.90;;
36597;SDS011;22607;49.550;11.940;2022-08-19T14:03:37;9.43;;;5.30;;
36597;SDS011;22607;49.550;11.940;2022-08-19T14:06:04;9.50;;;6.47;;
36597;SDS011;22607;49.550;11.940;2022-08-19T14:08:31;11.45;;;7.00;;
36597;SDS011;22607;49.550;11.940;2022-08-19T14:10:58;9.43;;;5.63;;
36597;SDS011;22607;49.550;11.940;2022-08-19T14:13:31;10.27;;;6.47;;
36597;SDS011;22607;49.550;11.940;2022-08-19T14:16:00;11.63;;;7.97;;
36597;SDS011;22607;49.550;11.940;2022-08-19T14:18:26;11.52;;;7.75;;
36597;SDS011;22607;49.550;11.940;2022-08-19T14:20:56;10.90;;;6.60;;
36597;SDS011;22607;49.550;11.940;2022-08-19T14:23:24;10.10;;;5.80;;
36597;SDS011;22607;49.550;11.940;2022-08-19T14:25:50;10.40;;;6.65;;
36597;SDS011;22607;49.550;11.940;2022-08-19T14:28:17;10.30;;;6.00;;
36597;SDS011;22607;49.550;11.940;2022-08-19T14:30:44;10.57;;;6.32;;
36597;SDS011;22607;49.550;11.940;2022-08-19T14:33:10;10.45;;;6.80;;
36597;SDS011;22607;49.550;11.940;2022-08-19T14:35:37;10.55;;;6.57;;
36597;SDS011;22607;49.550;11.940;2022-08-19T14:38:05;11.07;;;7.82;;
36597;SDS011;22607;49.550;11.940;2022-08-19T14:40:33;11.82;;;7.72;;
36597;SDS011;22607;49.550;11.940;2022-08-19T14:43:02;11.95;;;7.65;;
36597;SDS011;22607;49.550;11.940;2022-08-19T14:45:31;10.48;;;6.60;;
36597;SDS011;22607;49.550;11.940;2022-08-19T14:48:01;12.30;;;7.53;;
36597;SDS011;22607;49.550;11.940;2022-08-19T14:50:29;11.43;;;7.57;;